sensor_id;sensor_type;location;lat;lon;timestamp;P1;durP1;ratioP1;P2;durP2;ratioP2
38457;SDS011;24239;48.058;10.486;2023-08-12T00:01:12;8.63;;;6.78;;
38457;SDS011;24239;48.058;10.486;2023-08-12T00:03:38;12.50;;;7.18;;
38457;SDS011;24239;48.058;10.486;2023-08-12T00:06:05;12.45;;;7.15;;
38457;SDS011;24239;48.058;10.486;2023-08-12T00:08:36;8.30;;;6.32;;
38457;SDS011;24239;48.058;10.486;2023-08-12T00:11:04;8.02;;;6.80;;
38457;SDS011;24239;48.058;10.486;2023-08-12T00:13:32;9.00;;;6.72;;
38457;SDS011;24239;48.058;10.486;2023-08-12T00:16:02;7.57;;;6.45;;
38457;SDS011;24239;48.058;10.486;2023-08-12T00:18:31;9.02;;;7.20;;
38457;SDS011;24239;48.058;10.486;2023-08-12T00:21:09;7.05;;;6.35;;
38457;SDS011;24239;48.058;10.486;2023-08-12T00:23:39;7.30;;;6.18;;
38457;SDS011;24239;48.058;10.486;2023-08-12T00:26:10;7.03;;;6.32;;
38457;SDS011;24239;48.058;10.486;2023-08-12T00:28:39;8.07;;;6.45;;
38457;SDS011;24239;48.058;10.486;2023-08-12T00:31:10;10.40;;;6.38;;
38457;SDS011;24239;48.058;10.486;2023-08-12T00:33:39;7.00;;;6.30;;
38457;SDS011;24239;48.058;10.486;2023-08-12T00:36:06;10.90;;;6.72;;
38457;SDS011;24239;48.058;10.486;2023-08-12T00:38:33;9.40;;;6.88;;
38457;SDS011;24239;48.058;10.486;2023-08-12T00:41:03;8.57;;;6.35;;
38457;SDS011;24239;48.058;10.486;2023-08-12T00:43:30;7.80;;;6.63;;
38457;SDS011;24239;48.058;10.486;2023-08-12T00:45:58;7.43;;;6.18;;
38457;SDS011;24239;48.058;10.486;2023-08-12T00:48:27;7.68;;;6.70;;
38457;SDS011;24239;48.058;10.486;2023-08-12T00:50:57;9.15;;;7.30;;
38457;SDS011;24239;48.058;10.486;2023-08-12T00:53:25;8.52;;;7.18;;
38457;SDS011;24239;48.058;10.486;2023-08-12T00:55:51;8.65;;;6.90;;
38457;SDS011;24239;48.058;10.486;2023-08-12T00:58:19;8.68;;;7.22;;
38457;SDS011;24239;48.058;10.486;2023-08-12T01:00:48;11.00;;;6.97;;
38457;SDS011;24239;48.058;10.486;2023-08-12T01:03:18;7.30;;;6.60;;
38457;SDS011;24239;48.058;10.486;2023-08-12T01:05:49;9.88;;;7.43;;
38457;SDS011;24239;48.058;10.486;2023-08-12T01:08:18;14.00;;;6.93;;
38457;SDS011;24239;48.058;10.486;2023-08-12T01:10:49;9.00;;;7.55;;
38457;SDS011;24239;48.058;10.486;2023-08-12T01:13:26;8.15;;;7.20;;
38457;SDS011;24239;48.058;10.486;2023-08-12T01:16:08;7.68;;;6.88;;
38457;SDS011;24239;48.058;10.486;2023-08-12T01:18:39;9.38;;;7.00;;
38457;SDS011;24239;48.058;10.486;2023-08-12T01:23:41;7.55;;;6.75;;
38457;SDS011;24239;48.058;10.486;2023-08-12T01:26:09;8.32;;;6.47;;
38457;SDS011;24239;48.058;10.486;2023-08-12T01:28:36;9.18;;;7.13;;
38457;SDS011;24239;48.058;10.486;2023-08-12T01:33:58;7.72;;;6.50;;
38457;SDS011;24239;48.058;10.486;2023-08-12T01:36:39;9.20;;;6.80;;
38457;SDS011;24239;48.058;10.486;2023-08-12T01:39:12;8.23;;;6.68;;
38457;SDS011;24239;48.058;10.486;2023-08-12T01:41:42;7.85;;;7.05;;
38457;SDS011;24239;48.058;10.486;2023-08-12T01:44:11;7.93;;;7.15;;
38457;SDS011;24239;48.058;10.486;2023-08-12T01:46:42;7.57;;;6.78;;
38457;SDS011;24239;48.058;10.486;2023-08-12T01:49:12;9.70;;;7.63;;
38457;SDS011;24239;48.058;10.486;2023-08-12T01:51:39;9.98;;;7.57;;
38457;SDS011;24239;48.058;10.486;2023-08-12T01:54:06;8.00;;;6.85;;
38457;SDS011;24239;48.058;10.486;2023-08-12T01:56:34;7.22;;;6.50;;
38457;SDS011;24239;48.058;10.486;2023-08-12T01:59:01;9.68;;;7.50;;
38457;SDS011;24239;48.058;10.486;2023-08-12T02:01:29;7.78;;;6.97;;
38457;SDS011;24239;48.058;10.486;2023-08-12T02:03:57;8.23;;;6.88;;
38457;SDS011;24239;48.058;10.486;2023-08-12T02:06:23;11.43;;;6.90;;
38457;SDS011;24239;48.058;10.486;2023-08-12T02:08:50;9.27;;;6.78;;
38457;SDS011;24239;48.058;10.486;2023-08-12T02:11:17;9.70;;;6.60;;
38457;SDS011;24239;48.058;10.486;2023-08-12T02:13:43;7.55;;;6.70;;
38457;SDS011;24239;48.058;10.486;2023-08-12T02:16:11;7.95;;;6.43;;
38457;SDS011;24239;48.058;10.486;2023-08-12T02:18:40;7.07;;;6.35;;
38457;SDS011;24239;48.058;10.486;2023-08-12T02:21:09;7.95;;;6.25;;
38457;SDS011;24239;48.058;10.486;2023-08-12T02:23:35;7.75;;;6.95;;
38457;SDS011;24239;48.058;10.486;2023-08-12T02:26:01;11.85;;;7.20;;
38457;SDS011;24239;48.058;10.486;2023-08-12T02:28:28;8.27;;;7.25;;
38457;SDS011;24239;48.058;10.486;2023-08-12T02:30:53;7.70;;;6.90;;
38457;SDS011;24239;48.058;10.486;2023-08-12T02:33:19;9.40;;;6.60;;
38457;SDS011;24239;48.058;10.486;2023-08-12T02:35:46;7.13;;;6.38;;
38457;SDS011;24239;48.058;10.486;2023-08-12T02:38:13;7.15;;;6.00;;
38457;SDS011;24239;48.058;10.486;2023-08-12T02:40:40;7.68;;;6.38;;
38457;SDS011;24239;48.058;10.486;2023-08-12T02:43:07;8.65;;;7.10;;
38457;SDS011;24239;48.058;10.486;2023-08-12T02:45:35;8.90;;;7.28;;
38457;SDS011;24239;48.058;10.486;2023-08-12T02:48:03;8.60;;;6.95;;
38457;SDS011;24239;48.058;10.486;2023-08-12T02:50:31;8.07;;;7.28;;
38457;SDS011;24239;48.058;10.486;2023-08-12T02:52:59;11.07;;;7.93;;
38457;SDS011;24239;48.058;10.486;2023-08-12T02:55:27;8.45;;;7.13;;
38457;SDS011;24239;48.058;10.486;2023-08-12T02:57:54;8.70;;;7.25;;
38457;SDS011;24239;48.058;10.486;2023-08-12T03:00:20;9.75;;;7.85;;
38457;SDS011;24239;48.058;10.486;2023-08-12T03:02:48;9.82;;;8.23;;
38457;SDS011;24239;48.058;10.486;2023-08-12T03:05:18;8.88;;;7.25;;
38457;SDS011;24239;48.058;10.486;2023-08-12T03:07:49;8.07;;;6.97;;
38457;SDS011;24239;48.058;10.486;2023-08-12T03:10:17;10.25;;;6.20;;
38457;SDS011;24239;48.058;10.486;2023-08-12T03:12:45;12.20;;;7.28;;
38457;SDS011;24239;48.058;10.486;2023-08-12T03:15:15;10.10;;;7.47;;
38457;SDS011;24239;48.058;10.486;2023-08-12T03:17:44;10.68;;;6.97;;
38457;SDS011;24239;48.058;10.486;2023-08-12T03:20:14;8.73;;;7.00;;
38457;SDS011;24239;48.058;10.486;2023-08-12T03:22:43;8.65;;;7.75;;
38457;SDS011;24239;48.058;10.486;2023-08-12T03:25:11;7.80;;;6.97;;
38457;SDS011;24239;48.058;10.486;2023-08-12T03:27:41;8.18;;;7.05;;
38457;SDS011;24239;48.058;10.486;2023-08-12T03:30:08;9.00;;;6.50;;
38457;SDS011;24239;48.058;10.486;2023-08-12T03:32:36;8.32;;;7.47;;
38457;SDS011;24239;48.058;10.486;2023-08-12T03:35:05;9.75;;;7.03;;
38457;SDS011;24239;48.058;10.486;2023-08-12T03:37:32;7.93;;;7.10;;
38457;SDS011;24239;48.058;10.486;2023-08-12T03:40:01;8.40;;;7.57;;
38457;SDS011;24239;48.058;10.486;2023-08-12T03:42:31;9.45;;;7.35;;
38457;SDS011;24239;48.058;10.486;2023-08-12T03:45:00;10.65;;;7.43;;
38457;SDS011;24239;48.058;10.486;2023-08-12T03:47:28;9.40;;;7.45;;
38457;SDS011;24239;48.058;10.486;2023-08-12T03:49:55;9.07;;;7.40;;
38457;SDS011;24239;48.058;10.486;2023-08-12T03:52:22;9.60;;;7.15;;
38457;SDS011;24239;48.058;10.486;2023-08-12T03:54:50;8.05;;;7.25;;
38457;SDS011;24239;48.058;10.486;2023-08-12T03:57:19;8.27;;;7.47;;
38457;SDS011;24239;48.058;10.486;2023-08-12T03:59:49;9.32;;;6.85;;
38457;SDS011;24239;48.058;10.486;2023-08-12T04:02:19;10.52;;;7.90;;
38457;SDS011;24239;48.058;10.486;2023-08-12T04:04:49;7.93;;;7.13;;
38457;SDS011;24239;48.058;10.486;2023-08-12T04:07:19;8.15;;;6.55;;
38457;SDS011;24239;48.058;10.486;2023-08-12T04:09:48;8.05;;;7.25;;
38457;SDS011;24239;48.058;10.486;2023-08-12T04:12:17;7.82;;;6.93;;
38457;SDS011;24239;48.058;10.486;2023-08-12T04:14:43;10.57;;;6.88;;
38457;SDS011;24239;48.058;10.486;2023-08-12T04:17:11;10.77;;;6.72;;
38457;SDS011;24239;48.058;10.486;2023-08-12T04:19:37;7.30;;;6.40;;
38457;SDS011;24239;48.058;10.486;2023-08-12T04:22:04;10.50;;;7.10;;
38457;SDS011;24239;48.058;10.486;2023-08-12T04:24:30;10.15;;;7.05;;
38457;SDS011;24239;48.058;10.486;2023-08-12T04:26:56;9.43;;;7.07;;
38457;SDS011;24239;48.058;10.486;2023-08-12T04:29:23;9.90;;;7.00;;
38457;SDS011;24239;48.058;10.486;2023-08-12T04:31:50;8.52;;;6.93;;
38457;SDS011;24239;48.058;10.486;2023-08-12T04:34:20;8.38;;;7.45;;
38457;SDS011;24239;48.058;10.486;2023-08-12T04:36:47;8.65;;;7.75;;
38457;SDS011;24239;48.058;10.486;2023-08-12T04:39:14;10.27;;;7.22;;
38457;SDS011;24239;48.058;10.486;2023-08-12T04:41:41;7.57;;;6.85;;
38457;SDS011;24239;48.058;10.486;2023-08-12T04:44:08;7.32;;;6.63;;
38457;SDS011;24239;48.058;10.486;2023-08-12T04:46:36;6.55;;;5.95;;
38457;SDS011;24239;48.058;10.486;2023-08-12T04:49:04;8.32;;;5.05;;
38457;SDS011;24239;48.058;10.486;2023-08-12T04:51:31;8.18;;;5.70;;
38457;SDS011;24239;48.058;10.486;2023-08-12T04:53:57;7.47;;;5.63;;
38457;SDS011;24239;48.058;10.486;2023-08-12T04:56:25;5.65;;;5.05;;
38457;SDS011;24239;48.058;10.486;2023-08-12T04:58:56;5.50;;;5.00;;
38457;SDS011;24239;48.058;10.486;2023-08-12T05:01:22;4.85;;;4.32;;
38457;SDS011;24239;48.058;10.486;2023-08-12T05:03:48;5.35;;;4.50;;
38457;SDS011;24239;48.058;10.486;2023-08-12T05:06:13;6.38;;;5.00;;
38457;SDS011;24239;48.058;10.486;2023-08-12T05:08:39;8.60;;;5.05;;
38457;SDS011;24239;48.058;10.486;2023-08-12T05:11:05;6.80;;;4.82;;
38457;SDS011;24239;48.058;10.486;2023-08-12T05:13:31;12.70;;;5.20;;
38457;SDS011;24239;48.058;10.486;2023-08-12T05:15:59;9.32;;;5.82;;
38457;SDS011;24239;48.058;10.486;2023-08-12T05:18:27;9.77;;;5.70;;
38457;SDS011;24239;48.058;10.486;2023-08-12T05:20:56;8.88;;;5.80;;
38457;SDS011;24239;48.058;10.486;2023-08-12T05:23:24;13.77;;;5.22;;
38457;SDS011;24239;48.058;10.486;2023-08-12T05:25:53;10.75;;;5.80;;
38457;SDS011;24239;48.058;10.486;2023-08-12T05:28:22;6.80;;;5.57;;
38457;SDS011;24239;48.058;10.486;2023-08-12T05:30:49;9.20;;;5.53;;
38457;SDS011;24239;48.058;10.486;2023-08-12T05:33:15;7.50;;;5.38;;
38457;SDS011;24239;48.058;10.486;2023-08-12T05:35:41;10.57;;;6.45;;
38457;SDS011;24239;48.058;10.486;2023-08-12T05:38:06;8.77;;;5.65;;
38457;SDS011;24239;48.058;10.486;2023-08-12T05:40:36;5.97;;;5.10;;
38457;SDS011;24239;48.058;10.486;2023-08-12T05:43:05;8.32;;;5.35;;
38457;SDS011;24239;48.058;10.486;2023-08-12T05:45:36;7.53;;;5.05;;
38457;SDS011;24239;48.058;10.486;2023-08-12T05:48:02;10.07;;;5.28;;
38457;SDS011;24239;48.058;10.486;2023-08-12T05:50:28;7.07;;;4.95;;
38457;SDS011;24239;48.058;10.486;2023-08-12T05:52:54;5.40;;;4.90;;
38457;SDS011;24239;48.058;10.486;2023-08-12T05:55:22;7.10;;;5.38;;
38457;SDS011;24239;48.058;10.486;2023-08-12T05:57:49;5.25;;;4.50;;
38457;SDS011;24239;48.058;10.486;2023-08-12T06:00:16;5.20;;;3.95;;
38457;SDS011;24239;48.058;10.486;2023-08-12T06:02:45;7.63;;;4.72;;
38457;SDS011;24239;48.058;10.486;2023-08-12T06:05:13;6.40;;;4.68;;
38457;SDS011;24239;48.058;10.486;2023-08-12T06:07:42;5.25;;;4.38;;
38457;SDS011;24239;48.058;10.486;2023-08-12T06:10:11;7.65;;;4.53;;
38457;SDS011;24239;48.058;10.486;2023-08-12T06:12:37;6.90;;;4.75;;
38457;SDS011;24239;48.058;10.486;2023-08-12T06:15:04;8.00;;;4.82;;
38457;SDS011;24239;48.058;10.486;2023-08-12T06:17:30;7.50;;;4.82;;
38457;SDS011;24239;48.058;10.486;2023-08-12T06:19:56;6.57;;;4.82;;
38457;SDS011;24239;48.058;10.486;2023-08-12T06:22:22;7.63;;;4.72;;
38457;SDS011;24239;48.058;10.486;2023-08-12T06:24:48;8.88;;;4.53;;
38457;SDS011;24239;48.058;10.486;2023-08-12T06:27:14;6.07;;;4.55;;
38457;SDS011;24239;48.058;10.486;2023-08-12T06:29:40;5.85;;;4.40;;
38457;SDS011;24239;48.058;10.486;2023-08-12T06:32:05;6.20;;;4.50;;
38457;SDS011;24239;48.058;10.486;2023-08-12T06:34:33;7.68;;;4.10;;
38457;SDS011;24239;48.058;10.486;2023-08-12T06:36:59;12.65;;;4.75;;
38457;SDS011;24239;48.058;10.486;2023-08-12T06:39:25;6.32;;;5.00;;
38457;SDS011;24239;48.058;10.486;2023-08-12T06:41:50;6.47;;;4.85;;
38457;SDS011;24239;48.058;10.486;2023-08-12T06:44:17;7.82;;;4.72;;
38457;SDS011;24239;48.058;10.486;2023-08-12T06:46:43;6.22;;;4.60;;
38457;SDS011;24239;48.058;10.486;2023-08-12T06:49:10;41.65;;;8.65;;
38457;SDS011;24239;48.058;10.486;2023-08-12T06:51:38;5.88;;;4.40;;
38457;SDS011;24239;48.058;10.486;2023-08-12T06:54:04;6.72;;;4.30;;
38457;SDS011;24239;48.058;10.486;2023-08-12T06:56:30;7.32;;;4.18;;
38457;SDS011;24239;48.058;10.486;2023-08-12T06:58:56;9.73;;;4.00;;
38457;SDS011;24239;48.058;10.486;2023-08-12T07:01:22;5.80;;;4.20;;
38457;SDS011;24239;48.058;10.486;2023-08-12T07:03:49;5.18;;;4.00;;
38457;SDS011;24239;48.058;10.486;2023-08-12T07:06:15;8.43;;;4.30;;
38457;SDS011;24239;48.058;10.486;2023-08-12T07:08:44;5.07;;;4.57;;
38457;SDS011;24239;48.058;10.486;2023-08-12T07:11:12;7.00;;;4.35;;
38457;SDS011;24239;48.058;10.486;2023-08-12T07:13:40;5.63;;;4.10;;
38457;SDS011;24239;48.058;10.486;2023-08-12T07:16:12;6.57;;;4.50;;
38457;SDS011;24239;48.058;10.486;2023-08-12T07:18:38;8.23;;;4.13;;
38457;SDS011;24239;48.058;10.486;2023-08-12T07:21:09;4.78;;;4.00;;
38457;SDS011;24239;48.058;10.486;2023-08-12T07:23:37;7.35;;;4.05;;
38457;SDS011;24239;48.058;10.486;2023-08-12T07:26:07;9.07;;;5.03;;
38457;SDS011;24239;48.058;10.486;2023-08-12T07:28:35;9.63;;;4.53;;
38457;SDS011;24239;48.058;10.486;2023-08-12T07:31:05;8.68;;;4.03;;
38457;SDS011;24239;48.058;10.486;2023-08-12T07:33:34;9.57;;;4.05;;
38457;SDS011;24239;48.058;10.486;2023-08-12T07:36:02;6.18;;;4.18;;
38457;SDS011;24239;48.058;10.486;2023-08-12T07:38:31;6.78;;;3.65;;
38457;SDS011;24239;48.058;10.486;2023-08-12T07:40:59;12.63;;;5.22;;
38457;SDS011;24239;48.058;10.486;2023-08-12T07:43:27;10.60;;;5.10;;
38457;SDS011;24239;48.058;10.486;2023-08-12T07:45:54;11.45;;;4.72;;
38457;SDS011;24239;48.058;10.486;2023-08-12T07:48:20;12.18;;;4.57;;
38457;SDS011;24239;48.058;10.486;2023-08-12T07:50:54;7.97;;;4.00;;
38457;SDS011;24239;48.058;10.486;2023-08-12T07:53:23;7.72;;;4.65;;
38457;SDS011;24239;48.058;10.486;2023-08-12T07:55:52;5.57;;;3.40;;
38457;SDS011;24239;48.058;10.486;2023-08-12T07:58:20;8.57;;;3.90;;
38457;SDS011;24239;48.058;10.486;2023-08-12T08:00:52;6.70;;;4.03;;
38457;SDS011;24239;48.058;10.486;2023-08-12T08:03:20;5.50;;;4.10;;
38457;SDS011;24239;48.058;10.486;2023-08-12T08:05:49;4.03;;;3.60;;
38457;SDS011;24239;48.058;10.486;2023-08-12T08:08:18;6.43;;;3.78;;
38457;SDS011;24239;48.058;10.486;2023-08-12T08:10:48;8.33;;;4.00;;
38457;SDS011;24239;48.058;10.486;2023-08-12T08:13:16;5.97;;;3.83;;
38457;SDS011;24239;48.058;10.486;2023-08-12T08:15:47;4.15;;;3.58;;
38457;SDS011;24239;48.058;10.486;2023-08-12T08:18:13;4.30;;;3.35;;
38457;SDS011;24239;48.058;10.486;2023-08-12T08:20:43;3.95;;;3.50;;
38457;SDS011;24239;48.058;10.486;2023-08-12T08:23:11;3.92;;;3.50;;
38457;SDS011;24239;48.058;10.486;2023-08-12T08:25:37;4.63;;;3.75;;
38457;SDS011;24239;48.058;10.486;2023-08-12T08:28:06;5.10;;;3.47;;
38457;SDS011;24239;48.058;10.486;2023-08-12T08:30:37;3.83;;;3.40;;
38457;SDS011;24239;48.058;10.486;2023-08-12T08:33:05;5.80;;;3.38;;
38457;SDS011;24239;48.058;10.486;2023-08-12T08:35:34;4.90;;;3.53;;
38457;SDS011;24239;48.058;10.486;2023-08-12T08:38:05;10.18;;;4.60;;
38457;SDS011;24239;48.058;10.486;2023-08-12T08:40:34;5.30;;;3.65;;
38457;SDS011;24239;48.058;10.486;2023-08-12T08:43:02;4.50;;;3.67;;
38457;SDS011;24239;48.058;10.486;2023-08-12T08:45:32;4.40;;;3.72;;
38457;SDS011;24239;48.058;10.486;2023-08-12T08:48:00;8.57;;;3.67;;
38457;SDS011;24239;48.058;10.486;2023-08-12T08:50:29;5.22;;;3.35;;
38457;SDS011;24239;48.058;10.486;2023-08-12T08:52:57;5.85;;;3.60;;
38457;SDS011;24239;48.058;10.486;2023-08-12T08:55:28;8.25;;;3.30;;
38457;SDS011;24239;48.058;10.486;2023-08-12T08:57:54;5.70;;;3.53;;
38457;SDS011;24239;48.058;10.486;2023-08-12T09:00:21;3.88;;;3.47;;
38457;SDS011;24239;48.058;10.486;2023-08-12T09:02:47;6.93;;;3.58;;
38457;SDS011;24239;48.058;10.486;2023-08-12T09:05:15;6.13;;;3.70;;
38457;SDS011;24239;48.058;10.486;2023-08-12T09:07:42;6.43;;;3.60;;
38457;SDS011;24239;48.058;10.486;2023-08-12T09:10:09;3.92;;;3.53;;
38457;SDS011;24239;48.058;10.486;2023-08-12T09:12:36;5.65;;;3.60;;
38457;SDS011;24239;48.058;10.486;2023-08-12T09:15:02;3.63;;;3.20;;
38457;SDS011;24239;48.058;10.486;2023-08-12T09:17:29;5.60;;;3.95;;
38457;SDS011;24239;48.058;10.486;2023-08-12T09:19:57;6.05;;;3.65;;
38457;SDS011;24239;48.058;10.486;2023-08-12T09:22:24;6.40;;;3.75;;
38457;SDS011;24239;48.058;10.486;2023-08-12T09:24:59;4.80;;;3.70;;
38457;SDS011;24239;48.058;10.486;2023-08-12T09:27:29;6.75;;;4.03;;
38457;SDS011;24239;48.058;10.486;2023-08-12T09:29:58;5.25;;;3.72;;
38457;SDS011;24239;48.058;10.486;2023-08-12T09:32:28;4.65;;;3.88;;
38457;SDS011;24239;48.058;10.486;2023-08-12T09:34:56;5.75;;;3.65;;
38457;SDS011;24239;48.058;10.486;2023-08-12T09:37:23;4.88;;;3.65;;
38457;SDS011;24239;48.058;10.486;2023-08-12T09:39:52;5.13;;;3.30;;
38457;SDS011;24239;48.058;10.486;2023-08-12T09:42:18;5.82;;;3.83;;
38457;SDS011;24239;48.058;10.486;2023-08-12T09:44:44;9.63;;;3.63;;
38457;SDS011;24239;48.058;10.486;2023-08-12T09:47:11;7.82;;;3.78;;
38457;SDS011;24239;48.058;10.486;2023-08-12T09:49:39;5.13;;;3.72;;
38457;SDS011;24239;48.058;10.486;2023-08-12T09:52:06;9.50;;;4.00;;
38457;SDS011;24239;48.058;10.486;2023-08-12T09:54:33;4.32;;;3.60;;
38457;SDS011;24239;48.058;10.486;2023-08-12T09:57:01;5.45;;;3.63;;
38457;SDS011;24239;48.058;10.486;2023-08-12T09:59:30;6.72;;;3.92;;
38457;SDS011;24239;48.058;10.486;2023-08-12T10:02:02;7.38;;;3.95;;
38457;SDS011;24239;48.058;10.486;2023-08-12T10:07:10;4.72;;;3.67;;
38457;SDS011;24239;48.058;10.486;2023-08-12T10:09:41;5.50;;;3.83;;
38457;SDS011;24239;48.058;10.486;2023-08-12T10:12:08;5.35;;;4.18;;
38457;SDS011;24239;48.058;10.486;2023-08-12T10:14:36;6.60;;;4.47;;
38457;SDS011;24239;48.058;10.486;2023-08-12T10:17:04;6.45;;;3.85;;
38457;SDS011;24239;48.058;10.486;2023-08-12T10:19:30;9.73;;;6.13;;
38457;SDS011;24239;48.058;10.486;2023-08-12T10:21:56;6.65;;;3.95;;
38457;SDS011;24239;48.058;10.486;2023-08-12T10:24:27;6.47;;;4.47;;
38457;SDS011;24239;48.058;10.486;2023-08-12T10:26:53;5.25;;;4.10;;
38457;SDS011;24239;48.058;10.486;2023-08-12T10:29:22;8.07;;;4.05;;
38457;SDS011;24239;48.058;10.486;2023-08-12T10:31:49;4.80;;;3.95;;
38457;SDS011;24239;48.058;10.486;2023-08-12T10:34:19;6.53;;;3.85;;
38457;SDS011;24239;48.058;10.486;2023-08-12T10:36:53;6.00;;;4.00;;
38457;SDS011;24239;48.058;10.486;2023-08-12T10:39:26;11.68;;;5.13;;
38457;SDS011;24239;48.058;10.486;2023-08-12T10:41:59;6.72;;;3.78;;
38457;SDS011;24239;48.058;10.486;2023-08-12T10:44:49;8.30;;;3.78;;
38457;SDS011;24239;48.058;10.486;2023-08-12T10:47:17;4.35;;;3.65;;
38457;SDS011;24239;48.058;10.486;2023-08-12T10:49:48;6.00;;;3.72;;
38457;SDS011;24239;48.058;10.486;2023-08-12T10:55:24;10.35;;;4.07;;
38457;SDS011;24239;48.058;10.486;2023-08-12T10:57:54;8.18;;;4.20;;
38457;SDS011;24239;48.058;10.486;2023-08-12T11:03:11;8.05;;;4.07;;
38457;SDS011;24239;48.058;10.486;2023-08-12T11:05:39;9.73;;;4.43;;
38457;SDS011;24239;48.058;10.486;2023-08-12T11:08:07;6.28;;;3.78;;
38457;SDS011;24239;48.058;10.486;2023-08-12T11:10:38;4.30;;;3.45;;
38457;SDS011;24239;48.058;10.486;2023-08-12T11:13:09;5.10;;;4.07;;
38457;SDS011;24239;48.058;10.486;2023-08-12T11:15:40;5.75;;;3.83;;
38457;SDS011;24239;48.058;10.486;2023-08-12T11:18:17;7.90;;;3.97;;
38457;SDS011;24239;48.058;10.486;2023-08-12T11:20:48;3.90;;;3.50;;
38457;SDS011;24239;48.058;10.486;2023-08-12T11:23:19;7.88;;;4.30;;
38457;SDS011;24239;48.058;10.486;2023-08-12T11:25:49;4.18;;;3.60;;
38457;SDS011;24239;48.058;10.486;2023-08-12T11:28:18;6.10;;;3.70;;
38457;SDS011;24239;48.058;10.486;2023-08-12T11:30:46;5.72;;;4.10;;
38457;SDS011;24239;48.058;10.486;2023-08-12T11:33:16;7.93;;;4.35;;
38457;SDS011;24239;48.058;10.486;2023-08-12T11:35:44;7.97;;;4.20;;
38457;SDS011;24239;48.058;10.486;2023-08-12T11:38:12;8.48;;;4.30;;
38457;SDS011;24239;48.058;10.486;2023-08-12T11:40:44;7.07;;;3.78;;
38457;SDS011;24239;48.058;10.486;2023-08-12T11:43:11;7.65;;;4.28;;
38457;SDS011;24239;48.058;10.486;2023-08-12T11:45:41;5.72;;;4.10;;
38457;SDS011;24239;48.058;10.486;2023-08-12T11:48:09;4.40;;;3.85;;
38457;SDS011;24239;48.058;10.486;2023-08-12T11:50:37;7.72;;;3.70;;
38457;SDS011;24239;48.058;10.486;2023-08-12T11:53:05;5.28;;;4.05;;
38457;SDS011;24239;48.058;10.486;2023-08-12T11:55:31;4.63;;;4.22;;
38457;SDS011;24239;48.058;10.486;2023-08-12T11:57:58;4.82;;;4.00;;
38457;SDS011;24239;48.058;10.486;2023-08-12T12:00:25;7.72;;;4.10;;
38457;SDS011;24239;48.058;10.486;2023-08-12T12:02:54;3.85;;;3.22;;
38457;SDS011;24239;48.058;10.486;2023-08-12T12:05:27;3.72;;;3.40;;
38457;SDS011;24239;48.058;10.486;2023-08-12T12:07:58;7.68;;;3.35;;
38457;SDS011;24239;48.058;10.486;2023-08-12T12:10:31;4.78;;;3.60;;
38457;SDS011;24239;48.058;10.486;2023-08-12T12:13:01;3.72;;;3.08;;
38457;SDS011;24239;48.058;10.486;2023-08-12T12:15:30;3.67;;;3.38;;
38457;SDS011;24239;48.058;10.486;2023-08-12T12:18:04;4.82;;;3.70;;
38457;SDS011;24239;48.058;10.486;2023-08-12T12:20:42;5.53;;;3.70;;
38457;SDS011;24239;48.058;10.486;2023-08-12T12:23:26;4.80;;;3.95;;
38457;SDS011;24239;48.058;10.486;2023-08-12T12:25:58;6.95;;;3.72;;
38457;SDS011;24239;48.058;10.486;2023-08-12T12:28:42;5.28;;;3.47;;
38457;SDS011;24239;48.058;10.486;2023-08-12T12:31:12;3.70;;;3.40;;
38457;SDS011;24239;48.058;10.486;2023-08-12T12:33:39;3.97;;;3.55;;
38457;SDS011;24239;48.058;10.486;2023-08-12T12:36:06;3.95;;;3.28;;
38457;SDS011;24239;48.058;10.486;2023-08-12T12:38:35;10.80;;;4.40;;
38457;SDS011;24239;48.058;10.486;2023-08-12T12:41:03;6.75;;;3.80;;
38457;SDS011;24239;48.058;10.486;2023-08-12T12:43:30;6.45;;;3.90;;
38457;SDS011;24239;48.058;10.486;2023-08-12T12:45:58;5.82;;;3.75;;
38457;SDS011;24239;48.058;10.486;2023-08-12T12:48:27;5.18;;;3.95;;
38457;SDS011;24239;48.058;10.486;2023-08-12T12:50:55;9.60;;;4.03;;
38457;SDS011;24239;48.058;10.486;2023-08-12T12:53:23;6.60;;;4.07;;
38457;SDS011;24239;48.058;10.486;2023-08-12T12:55:50;6.07;;;3.95;;
38457;SDS011;24239;48.058;10.486;2023-08-12T12:58:20;4.68;;;3.40;;
38457;SDS011;24239;48.058;10.486;2023-08-12T13:00:49;4.82;;;3.97;;
38457;SDS011;24239;48.058;10.486;2023-08-12T13:03:18;5.15;;;3.35;;
38457;SDS011;24239;48.058;10.486;2023-08-12T13:05:45;5.10;;;4.00;;
38457;SDS011;24239;48.058;10.486;2023-08-12T13:08:11;4.70;;;3.95;;
38457;SDS011;24239;48.058;10.486;2023-08-12T13:10:36;6.03;;;3.72;;
38457;SDS011;24239;48.058;10.486;2023-08-12T13:13:02;3.60;;;3.30;;
38457;SDS011;24239;48.058;10.486;2023-08-12T13:15:28;10.73;;;3.72;;
38457;SDS011;24239;48.058;10.486;2023-08-12T13:17:57;11.85;;;4.00;;
38457;SDS011;24239;48.058;10.486;2023-08-12T13:20:25;5.90;;;3.80;;
38457;SDS011;24239;48.058;10.486;2023-08-12T13:22:53;9.30;;;4.00;;
38457;SDS011;24239;48.058;10.486;2023-08-12T13:25:21;8.40;;;3.70;;
38457;SDS011;24239;48.058;10.486;2023-08-12T13:27:49;7.10;;;4.32;;
38457;SDS011;24239;48.058;10.486;2023-08-12T13:30:15;10.30;;;4.47;;
38457;SDS011;24239;48.058;10.486;2023-08-12T13:32:45;7.78;;;3.90;;
38457;SDS011;24239;48.058;10.486;2023-08-12T13:35:13;7.72;;;4.50;;
38457;SDS011;24239;48.058;10.486;2023-08-12T13:37:39;4.55;;;3.80;;
38457;SDS011;24239;48.058;10.486;2023-08-12T13:40:08;10.38;;;4.53;;
38457;SDS011;24239;48.058;10.486;2023-08-12T13:42:37;7.60;;;4.20;;
38457;SDS011;24239;48.058;10.486;2023-08-12T13:45:04;5.35;;;4.22;;
38457;SDS011;24239;48.058;10.486;2023-08-12T13:47:30;8.52;;;4.28;;
38457;SDS011;24239;48.058;10.486;2023-08-12T13:49:59;5.00;;;4.15;;
38457;SDS011;24239;48.058;10.486;2023-08-12T13:52:27;9.02;;;4.07;;
38457;SDS011;24239;48.058;10.486;2023-08-12T13:54:53;18.70;;;4.95;;
38457;SDS011;24239;48.058;10.486;2023-08-12T13:57:22;5.70;;;3.65;;
38457;SDS011;24239;48.058;10.486;2023-08-12T13:59:49;4.45;;;3.50;;
38457;SDS011;24239;48.058;10.486;2023-08-12T14:02:19;4.38;;;3.55;;
38457;SDS011;24239;48.058;10.486;2023-08-12T14:04:50;6.18;;;3.78;;
38457;SDS011;24239;48.058;10.486;2023-08-12T14:07:18;6.38;;;3.78;;
38457;SDS011;24239;48.058;10.486;2023-08-12T14:09:45;5.25;;;3.60;;
38457;SDS011;24239;48.058;10.486;2023-08-12T14:12:13;7.95;;;3.67;;
38457;SDS011;24239;48.058;10.486;2023-08-12T14:14:41;6.25;;;3.60;;
38457;SDS011;24239;48.058;10.486;2023-08-12T14:17:09;6.40;;;4.22;;
38457;SDS011;24239;48.058;10.486;2023-08-12T14:19:40;6.15;;;3.72;;
38457;SDS011;24239;48.058;10.486;2023-08-12T14:22:10;6.68;;;3.40;;
38457;SDS011;24239;48.058;10.486;2023-08-12T14:24:37;5.00;;;3.53;;
38457;SDS011;24239;48.058;10.486;2023-08-12T14:27:06;6.43;;;3.90;;
38457;SDS011;24239;48.058;10.486;2023-08-12T14:29:35;6.63;;;3.67;;
38457;SDS011;24239;48.058;10.486;2023-08-12T14:32:02;5.97;;;3.97;;
38457;SDS011;24239;48.058;10.486;2023-08-12T14:34:29;4.85;;;3.58;;
38457;SDS011;24239;48.058;10.486;2023-08-12T14:37:02;6.40;;;3.72;;
38457;SDS011;24239;48.058;10.486;2023-08-12T14:39:30;10.30;;;4.28;;
38457;SDS011;24239;48.058;10.486;2023-08-12T14:41:57;7.07;;;3.60;;
38457;SDS011;24239;48.058;10.486;2023-08-12T14:44:25;6.53;;;3.72;;
38457;SDS011;24239;48.058;10.486;2023-08-12T14:46:52;6.10;;;3.75;;
38457;SDS011;24239;48.058;10.486;2023-08-12T14:49:22;5.30;;;3.47;;
38457;SDS011;24239;48.058;10.486;2023-08-12T14:51:51;6.27;;;3.93;;
38457;SDS011;24239;48.058;10.486;2023-08-12T14:54:21;10.05;;;3.88;;